Terminal Aerodrome Forecast
Issued by NWS Sioux Falls, SD

Home | Current Version | Previous Version | Text Only | Print | Product List | Glossary On
Versions: 1 2 3 4 5 6 7 8 9 10 11 12 13
000
FTUS43 KFSD 171722
TAFFSD
TAF
KFSD 171722Z 1718/1818 34009KT P6SM OVC110
     FM180100 36011KT P6SM SCT030 OVC035
     FM180500 33011KT P6SM VCSH BKN060
     FM181100 33011KT P6SM SCT140
     FM181700 32014G24KT P6SM FEW150=

USA.gov is the U.S. government's official web portal to all federal, state and local government web resources and services.